sensor_id;sensor_type;location;lat;lon;timestamp;pressure;altitude;pressure_sealevel;temperature;humidity
10618;BME280;5356;43.526;26.534;2022-12-16T00:00:14;99030.84;;;4.46;100.00
10618;BME280;5356;43.526;26.534;2022-12-16T00:02:40;99028.03;;;4.48;100.00
10618;BME280;5356;43.526;26.534;2022-12-16T00:05:06;99025.41;;;4.48;100.00
10618;BME280;5356;43.526;26.534;2022-12-16T00:07:32;99017.84;;;4.45;100.00
10618;BME280;5356;43.526;26.534;2022-12-16T00:09:58;99025.50;;;4.40;100.00
10618;BME280;5356;43.526;26.534;2022-12-16T00:12:24;99029.03;;;4.47;100.00
10618;BME280;5356;43.526;26.534;2022-12-16T00:14:49;99024.44;;;4.56;100.00
10618;BME280;5356;43.526;26.534;2022-12-16T00:17:15;99026.56;;;4.60;100.00
10618;BME280;5356;43.526;26.534;2022-12-16T00:19:40;99028.66;;;4.65;100.00
10618;BME280;5356;43.526;26.534;2022-12-16T00:22:06;99037.06;;;4.75;100.00
10618;BME280;5356;43.526;26.534;2022-12-16T00:24:31;99037.78;;;4.84;100.00
10618;BME280;5356;43.526;26.534;2022-12-16T00:26:57;99018.31;;;4.85;100.00
10618;BME280;5356;43.526;26.534;2022-12-16T00:29:22;99018.69;;;4.82;100.00
10618;BME280;5356;43.526;26.534;2022-12-16T00:31:48;99023.59;;;4.85;100.00
10618;BME280;5356;43.526;26.534;2022-12-16T00:34:14;99024.84;;;4.89;100.00
10618;BME280;5356;43.526;26.534;2022-12-16T00:36:40;99028.50;;;4.88;100.00
10618;BME280;5356;43.526;26.534;2022-12-16T00:39:06;99027.09;;;4.92;100.00
10618;BME280;5356;43.526;26.534;2022-12-16T00:41:32;99017.81;;;4.96;100.00
10618;BME280;5356;43.526;26.534;2022-12-16T00:43:57;99020.09;;;4.99;100.00
10618;BME280;5356;43.526;26.534;2022-12-16T00:46:23;99022.97;;;5.04;100.00
10618;BME280;5356;43.526;26.534;2022-12-16T00:48:48;99011.28;;;5.13;100.00
10618;BME280;5356;43.526;26.534;2022-12-16T00:51:13;99015.81;;;5.20;100.00
10618;BME280;5356;43.526;26.534;2022-12-16T00:53:39;99011.16;;;5.22;100.00
10618;BME280;5356;43.526;26.534;2022-12-16T00:56:07;99020.31;;;5.26;100.00
10618;BME280;5356;43.526;26.534;2022-12-16T00:58:33;99017.09;;;5.24;100.00
10618;BME280;5356;43.526;26.534;2022-12-16T01:00:59;99001.47;;;5.29;100.00
10618;BME280;5356;43.526;26.534;2022-12-16T01:03:25;99000.47;;;5.30;100.00
10618;BME280;5356;43.526;26.534;2022-12-16T01:05:50;99002.72;;;5.33;100.00
10618;BME280;5356;43.526;26.534;2022-12-16T01:08:15;99005.25;;;5.41;100.00
10618;BME280;5356;43.526;26.534;2022-12-16T01:10:41;98997.31;;;5.41;100.00
10618;BME280;5356;43.526;26.534;2022-12-16T01:13:06;99001.84;;;5.47;100.00
10618;BME280;5356;43.526;26.534;2022-12-16T01:15:32;99002.06;;;5.52;100.00
10618;BME280;5356;43.526;26.534;2022-12-16T01:17:57;98991.69;;;5.51;100.00
10618;BME280;5356;43.526;26.534;2022-12-16T01:20:23;98992.13;;;5.54;100.00
10618;BME280;5356;43.526;26.534;2022-12-16T01:22:49;98992.59;;;5.65;100.00
10618;BME280;5356;43.526;26.534;2022-12-16T01:25:14;98989.19;;;5.71;100.00
10618;BME280;5356;43.526;26.534;2022-12-16T01:27:41;98980.72;;;5.82;100.00
10618;BME280;5356;43.526;26.534;2022-12-16T01:30:08;98978.09;;;5.82;100.00
10618;BME280;5356;43.526;26.534;2022-12-16T01:32:34;98990.78;;;5.93;100.00
10618;BME280;5356;43.526;26.534;2022-12-16T01:35:00;98978.75;;;5.91;100.00
10618;BME280;5356;43.526;26.534;2022-12-16T01:37:25;98976.41;;;6.02;100.00
10618;BME280;5356;43.526;26.534;2022-12-16T01:39:51;98968.13;;;6.12;100.00
10618;BME280;5356;43.526;26.534;2022-12-16T01:42:20;98968.53;;;6.16;100.00
10618;BME280;5356;43.526;26.534;2022-12-16T01:44:48;98962.63;;;6.14;100.00
10618;BME280;5356;43.526;26.534;2022-12-16T01:47:19;98961.81;;;6.20;100.00
10618;BME280;5356;43.526;26.534;2022-12-16T01:49:51;98967.34;;;6.25;100.00
10618;BME280;5356;43.526;26.534;2022-12-16T01:52:21;98973.50;;;6.32;100.00
10618;BME280;5356;43.526;26.534;2022-12-16T01:54:56;98966.53;;;6.24;100.00
10618;BME280;5356;43.526;26.534;2022-12-16T01:57:29;98968.16;;;6.25;100.00
10618;BME280;5356;43.526;26.534;2022-12-16T01:59:58;98969.00;;;6.26;100.00
10618;BME280;5356;43.526;26.534;2022-12-16T02:02:26;98966.56;;;6.31;100.00
10618;BME280;5356;43.526;26.534;2022-12-16T02:04:51;98969.84;;;6.33;100.00
10618;BME280;5356;43.526;26.534;2022-12-16T02:07:36;98971.03;;;6.30;100.00
10618;BME280;5356;43.526;26.534;2022-12-16T02:10:02;98977.53;;;6.28;100.00
10618;BME280;5356;43.526;26.534;2022-12-16T02:18:07;98979.13;;;6.16;100.00
10618;BME280;5356;43.526;26.534;2022-12-16T02:26:47;98985.06;;;6.24;100.00
10618;BME280;5356;43.526;26.534;2022-12-16T02:34:54;98976.72;;;6.21;100.00
10618;BME280;5356;43.526;26.534;2022-12-16T02:37:36;98974.88;;;6.21;100.00
10618;BME280;5356;43.526;26.534;2022-12-16T02:40:15;98967.13;;;6.20;100.00
10618;BME280;5356;43.526;26.534;2022-12-16T02:42:47;98966.13;;;6.21;100.00
10618;BME280;5356;43.526;26.534;2022-12-16T02:45:17;98963.25;;;6.16;100.00
10618;BME280;5356;43.526;26.534;2022-12-16T02:47:44;98957.59;;;6.25;100.00
10618;BME280;5356;43.526;26.534;2022-12-16T02:50:18;98935.81;;;6.23;100.00
10618;BME280;5356;43.526;26.534;2022-12-16T02:52:44;98936.66;;;6.30;100.00
10618;BME280;5356;43.526;26.534;2022-12-16T02:55:10;98935.84;;;6.30;100.00
10618;BME280;5356;43.526;26.534;2022-12-16T03:00:07;98926.94;;;6.38;100.00
10618;BME280;5356;43.526;26.534;2022-12-16T03:07:50;98912.28;;;6.42;100.00
10618;BME280;5356;43.526;26.534;2022-12-16T03:10:18;98912.31;;;6.48;100.00
10618;BME280;5356;43.526;26.534;2022-12-16T03:12:46;98912.09;;;6.50;100.00
10618;BME280;5356;43.526;26.534;2022-12-16T03:15:15;98910.03;;;6.45;100.00
10618;BME280;5356;43.526;26.534;2022-12-16T03:17:43;98915.94;;;6.41;100.00
10618;BME280;5356;43.526;26.534;2022-12-16T03:20:47;98928.56;;;6.45;100.00
10618;BME280;5356;43.526;26.534;2022-12-16T03:23:19;98927.78;;;6.51;100.00
10618;BME280;5356;43.526;26.534;2022-12-16T03:25:48;98929.63;;;6.58;100.00
10618;BME280;5356;43.526;26.534;2022-12-16T03:28:22;98929.63;;;6.58;100.00
10618;BME280;5356;43.526;26.534;2022-12-16T03:30:58;98939.81;;;6.61;100.00
10618;BME280;5356;43.526;26.534;2022-12-16T03:33:33;98928.81;;;6.70;100.00
10618;BME280;5356;43.526;26.534;2022-12-16T03:36:06;98945.94;;;6.74;100.00
10618;BME280;5356;43.526;26.534;2022-12-16T03:38:34;98927.41;;;6.81;100.00
10618;BME280;5356;43.526;26.534;2022-12-16T03:41:02;98920.31;;;6.88;100.00
10618;BME280;5356;43.526;26.534;2022-12-16T03:43:28;98931.50;;;6.90;100.00
10618;BME280;5356;43.526;26.534;2022-12-16T03:45:56;98922.56;;;6.91;100.00
10618;BME280;5356;43.526;26.534;2022-12-16T03:48:25;98921.53;;;6.92;100.00
10618;BME280;5356;43.526;26.534;2022-12-16T03:50:50;98922.34;;;6.93;100.00
10618;BME280;5356;43.526;26.534;2022-12-16T03:53:16;98922.78;;;6.96;100.00
10618;BME280;5356;43.526;26.534;2022-12-16T03:55:42;98927.66;;;7.00;100.00
10618;BME280;5356;43.526;26.534;2022-12-16T03:58:08;98914.22;;;6.94;100.00
10618;BME280;5356;43.526;26.534;2022-12-16T04:00:34;98913.97;;;6.96;100.00
10618;BME280;5356;43.526;26.534;2022-12-16T04:03:00;98911.78;;;7.00;100.00
10618;BME280;5356;43.526;26.534;2022-12-16T04:05:26;98913.38;;;7.01;100.00
10618;BME280;5356;43.526;26.534;2022-12-16T04:07:51;98911.78;;;7.00;100.00
10618;BME280;5356;43.526;26.534;2022-12-16T04:10:17;98904.41;;;7.02;100.00
10618;BME280;5356;43.526;26.534;2022-12-16T04:13:02;98914.59;;;7.05;100.00
10618;BME280;5356;43.526;26.534;2022-12-16T04:15:46;98919.09;;;7.11;100.00
10618;BME280;5356;43.526;26.534;2022-12-16T04:18:30;98923.59;;;7.17;100.00
10618;BME280;5356;43.526;26.534;2022-12-16T04:21:15;98920.31;;;7.15;100.00
10618;BME280;5356;43.526;26.534;2022-12-16T04:23:59;98921.56;;;7.19;100.00
10618;BME280;5356;43.526;26.534;2022-12-16T04:27:00;98917.88;;;7.27;100.00
10618;BME280;5356;43.526;26.534;2022-12-16T04:29:44;98912.38;;;7.28;100.00
10618;BME280;5356;43.526;26.534;2022-12-16T04:32:30;98911.13;;;7.37;100.00
10618;BME280;5356;43.526;26.534;2022-12-16T04:35:14;98922.34;;;7.39;100.00
10618;BME280;5356;43.526;26.534;2022-12-16T04:37:58;98905.66;;;7.39;100.00
10618;BME280;5356;43.526;26.534;2022-12-16T04:40:42;98909.09;;;7.39;100.00
10618;BME280;5356;43.526;26.534;2022-12-16T04:43:26;98910.72;;;7.40;100.00
10618;BME280;5356;43.526;26.534;2022-12-16T04:46:10;98916.81;;;7.41;100.00
10618;BME280;5356;43.526;26.534;2022-12-16T04:48:54;98916.22;;;7.46;100.00
10618;BME280;5356;43.526;26.534;2022-12-16T04:51:38;98914.38;;;7.53;100.00
10618;BME280;5356;43.526;26.534;2022-12-16T04:54:22;98911.91;;;7.58;100.00
10618;BME280;5356;43.526;26.534;2022-12-16T04:57:06;98905.78;;;7.64;100.00
10618;BME280;5356;43.526;26.534;2022-12-16T04:59:50;98912.94;;;7.70;100.00
10618;BME280;5356;43.526;26.534;2022-12-16T05:02:33;98912.94;;;7.70;100.00
10618;BME280;5356;43.526;26.534;2022-12-16T05:05:17;98910.03;;;7.78;100.00
10618;BME280;5356;43.526;26.534;2022-12-16T05:08:01;98902.25;;;7.90;100.00
10618;BME280;5356;43.526;26.534;2022-12-16T05:10:45;98906.13;;;7.94;100.00
10618;BME280;5356;43.526;26.534;2022-12-16T05:13:29;98904.69;;;7.98;100.00
10618;BME280;5356;43.526;26.534;2022-12-16T05:16:13;98900.16;;;8.05;100.00
10618;BME280;5356;43.526;26.534;2022-12-16T05:18:57;98904.84;;;8.03;100.00
10618;BME280;5356;43.526;26.534;2022-12-16T05:21:41;98917.25;;;8.09;100.00
10618;BME280;5356;43.526;26.534;2022-12-16T05:24:25;98912.34;;;8.20;100.00
10618;BME280;5356;43.526;26.534;2022-12-16T05:27:10;98901.28;;;8.29;100.00
10618;BME280;5356;43.526;26.534;2022-12-16T05:29:54;98909.84;;;8.31;100.00
10618;BME280;5356;43.526;26.534;2022-12-16T05:32:37;98902.47;;;8.33;100.00
10618;BME280;5356;43.526;26.534;2022-12-16T05:35:21;98898.81;;;8.41;100.00
10618;BME280;5356;43.526;26.534;2022-12-16T05:38:05;98894.25;;;8.48;100.00
10618;BME280;5356;43.526;26.534;2022-12-16T05:40:49;98895.03;;;8.56;100.00
10618;BME280;5356;43.526;26.534;2022-12-16T05:43:33;98903.81;;;8.56;100.00
10618;BME280;5356;43.526;26.534;2022-12-16T05:46:17;98888.94;;;8.55;100.00
10618;BME280;5356;43.526;26.534;2022-12-16T05:49:01;98889.06;;;8.60;100.00
10618;BME280;5356;43.526;26.534;2022-12-16T05:51:45;98883.75;;;8.60;100.00
10618;BME280;5356;43.526;26.534;2022-12-16T05:54:29;98899.88;;;8.65;100.00
10618;BME280;5356;43.526;26.534;2022-12-16T05:57:13;98896.53;;;8.76;100.00
10618;BME280;5356;43.526;26.534;2022-12-16T05:59:57;98899.78;;;8.79;100.00
10618;BME280;5356;43.526;26.534;2022-12-16T06:02:41;98921.47;;;8.75;100.00
10618;BME280;5356;43.526;26.534;2022-12-16T06:05:45;98919.81;;;8.81;100.00
10618;BME280;5356;43.526;26.534;2022-12-16T06:08:28;98918.56;;;8.84;100.00
10618;BME280;5356;43.526;26.534;2022-12-16T06:11:12;98926.09;;;8.87;100.00
10618;BME280;5356;43.526;26.534;2022-12-16T06:13:56;98932.22;;;8.87;100.00
10618;BME280;5356;43.526;26.534;2022-12-16T06:16:40;98937.91;;;8.91;100.00
10618;BME280;5356;43.526;26.534;2022-12-16T06:19:24;98938.94;;;8.90;100.00
10618;BME280;5356;43.526;26.534;2022-12-16T06:22:08;98935.22;;;8.97;100.00
10618;BME280;5356;43.526;26.534;2022-12-16T06:24:52;98949.69;;;9.02;100.00
10618;BME280;5356;43.526;26.534;2022-12-16T06:27:36;98945.41;;;9.01;100.00
10618;BME280;5356;43.526;26.534;2022-12-16T06:30:20;98938.44;;;9.06;100.00
10618;BME280;5356;43.526;26.534;2022-12-16T06:33:04;98930.59;;;9.11;100.00
10618;BME280;5356;43.526;26.534;2022-12-16T06:35:48;98932.25;;;9.12;100.00
10618;BME280;5356;43.526;26.534;2022-12-16T06:38:31;98931.22;;;9.13;100.00
10618;BME280;5356;43.526;26.534;2022-12-16T06:41:16;98928.97;;;9.10;100.00
10618;BME280;5356;43.526;26.534;2022-12-16T06:43:59;98923.56;;;9.24;100.00
10618;BME280;5356;43.526;26.534;2022-12-16T06:46:43;98911.47;;;9.28;100.00
10618;BME280;5356;43.526;26.534;2022-12-16T06:49:27;98911.72;;;9.19;100.00
10618;BME280;5356;43.526;26.534;2022-12-16T06:52:11;98918.03;;;9.25;100.00
10618;BME280;5356;43.526;26.534;2022-12-16T06:54:55;98912.22;;;9.35;100.00
10618;BME280;5356;43.526;26.534;2022-12-16T06:57:39;98922.16;;;9.46;100.00
10618;BME280;5356;43.526;26.534;2022-12-16T07:00:23;98923.84;;;9.40;100.00
10618;BME280;5356;43.526;26.534;2022-12-16T07:03:07;98917.81;;;9.52;100.00
10618;BME280;5356;43.526;26.534;2022-12-16T07:05:52;98918.94;;;9.62;100.00
10618;BME280;5356;43.526;26.534;2022-12-16T07:08:36;98923.94;;;9.71;100.00
10618;BME280;5356;43.526;26.534;2022-12-16T07:11:20;98920.72;;;9.69;100.00
10618;BME280;5356;43.526;26.534;2022-12-16T07:14:03;98921.88;;;9.73;100.00
10618;BME280;5356;43.526;26.534;2022-12-16T07:16:47;98914.88;;;9.78;100.00
10618;BME280;5356;43.526;26.534;2022-12-16T07:19:31;98920.69;;;9.87;100.00
10618;BME280;5356;43.526;26.534;2022-12-16T07:22:15;98923.16;;;9.88;100.00
10618;BME280;5356;43.526;26.534;2022-12-16T07:24:59;98917.31;;;9.98;100.00
10618;BME280;5356;43.526;26.534;2022-12-16T07:27:46;98920.78;;;9.99;100.00
10618;BME280;5356;43.526;26.534;2022-12-16T07:30:31;98930.41;;;10.00;100.00
10618;BME280;5356;43.526;26.534;2022-12-16T07:33:15;98939.09;;;10.07;100.00
10618;BME280;5356;43.526;26.534;2022-12-16T07:35:59;98938.00;;;10.15;100.00
10618;BME280;5356;43.526;26.534;2022-12-16T07:38:43;98934.59;;;10.07;100.00
10618;BME280;5356;43.526;26.534;2022-12-16T07:41:27;98934.97;;;10.11;100.00
10618;BME280;5356;43.526;26.534;2022-12-16T07:44:10;98942.88;;;10.18;100.00
10618;BME280;5356;43.526;26.534;2022-12-16T07:46:54;98931.13;;;10.07;100.00
10618;BME280;5356;43.526;26.534;2022-12-16T07:49:38;98940.22;;;10.18;100.00
10618;BME280;5356;43.526;26.534;2022-12-16T07:52:22;98947.09;;;10.25;100.00
10618;BME280;5356;43.526;26.534;2022-12-16T07:55:06;98964.28;;;10.29;100.00
10618;BME280;5356;43.526;26.534;2022-12-16T07:57:50;98977.13;;;10.32;100.00
10618;BME280;5356;43.526;26.534;2022-12-16T08:00:34;98979.19;;;10.49;100.00
10618;BME280;5356;43.526;26.534;2022-12-16T08:03:18;98968.09;;;10.52;100.00
10618;BME280;5356;43.526;26.534;2022-12-16T08:06:02;98959.88;;;10.53;100.00
10618;BME280;5356;43.526;26.534;2022-12-16T08:08:46;98966.84;;;10.54;100.00
10618;BME280;5356;43.526;26.534;2022-12-16T08:11:30;98974.41;;;10.69;100.00
10618;BME280;5356;43.526;26.534;2022-12-16T08:14:14;98970.03;;;10.75;100.00
10618;BME280;5356;43.526;26.534;2022-12-16T08:16:58;98978.00;;;10.93;100.00
10618;BME280;5356;43.526;26.534;2022-12-16T08:19:42;98955.50;;;11.01;100.00
10618;BME280;5356;43.526;26.534;2022-12-16T08:22:26;98950.25;;;11.13;100.00
10618;BME280;5356;43.526;26.534;2022-12-16T08:25:10;98961.25;;;11.28;100.00
10618;BME280;5356;43.526;26.534;2022-12-16T08:27:54;98938.19;;;11.34;100.00
10618;BME280;5356;43.526;26.534;2022-12-16T08:30:39;98939.25;;;11.33;100.00
10618;BME280;5356;43.526;26.534;2022-12-16T08:33:23;98930.44;;;11.44;100.00
10618;BME280;5356;43.526;26.534;2022-12-16T08:36:07;98945.28;;;11.52;100.00
10618;BME280;5356;43.526;26.534;2022-12-16T08:38:51;98940.06;;;11.45;100.00
10618;BME280;5356;43.526;26.534;2022-12-16T08:41:35;98943.19;;;11.54;100.00
10618;BME280;5356;43.526;26.534;2022-12-16T08:44:22;98936.81;;;11.55;100.00
10618;BME280;5356;43.526;26.534;2022-12-16T08:47:06;98918.72;;;11.45;100.00
10618;BME280;5356;43.526;26.534;2022-12-16T08:49:50;98914.66;;;11.54;100.00
10618;BME280;5356;43.526;26.534;2022-12-16T08:52:34;98902.50;;;11.58;100.00
10618;BME280;5356;43.526;26.534;2022-12-16T08:55:18;98904.09;;;11.59;100.00
10618;BME280;5356;43.526;26.534;2022-12-16T08:58:02;98894.00;;;11.73;100.00
10618;BME280;5356;43.526;26.534;2022-12-16T09:00:46;98893.88;;;11.80;100.00
10618;BME280;5356;43.526;26.534;2022-12-16T09:03:29;98890.03;;;11.99;100.00
10618;BME280;5356;43.526;26.534;2022-12-16T09:06:13;98892.59;;;12.06;100.00
10618;BME280;5356;43.526;26.534;2022-12-16T09:08:57;98890.94;;;12.05;100.00
10618;BME280;5356;43.526;26.534;2022-12-16T09:11:41;98891.81;;;12.22;100.00
10618;BME280;5356;43.526;26.534;2022-12-16T09:14:25;98902.94;;;12.31;100.00
10618;BME280;5356;43.526;26.534;2022-12-16T09:17:09;98901.38;;;12.47;100.00
10618;BME280;5356;43.526;26.534;2022-12-16T09:19:53;98900.41;;;12.53;100.00
10618;BME280;5356;43.526;26.534;2022-12-16T09:22:37;98909.75;;;12.67;100.00
10618;BME280;5356;43.526;26.534;2022-12-16T09:25:21;98915.28;;;12.77;100.00
10618;BME280;5356;43.526;26.534;2022-12-16T09:28:05;98920.97;;;12.81;100.00
10618;BME280;5356;43.526;26.534;2022-12-16T09:30:49;98912.25;;;12.86;100.00
10618;BME280;5356;43.526;26.534;2022-12-16T09:33:33;98904.69;;;12.83;100.00
10618;BME280;5356;43.526;26.534;2022-12-16T09:36:17;98897.31;;;12.90;100.00
10618;BME280;5356;43.526;26.534;2022-12-16T09:39:01;98894.34;;;13.03;100.00
10618;BME280;5356;43.526;26.534;2022-12-16T09:42:04;98894.97;;;13.10;100.00
10618;BME280;5356;43.526;26.534;2022-12-16T09:48:02;98896.38;;;13.30;100.00
10618;BME280;5356;43.526;26.534;2022-12-16T09:50:50;98898.66;;;13.38;100.00
10618;BME280;5356;43.526;26.534;2022-12-16T09:53:36;98896.69;;;13.50;100.00
10618;BME280;5356;43.526;26.534;2022-12-16T09:56:27;98889.38;;;13.62;100.00
10618;BME280;5356;43.526;26.534;2022-12-16T09:59:27;98879.28;;;13.69;100.00
10618;BME280;5356;43.526;26.534;2022-12-16T10:02:13;98883.78;;;13.86;100.00
10618;BME280;5356;43.526;26.534;2022-12-16T10:05:00;98878.88;;;14.00;100.00
10618;BME280;5356;43.526;26.534;2022-12-16T10:07:58;98865.66;;;14.15;100.00
10618;BME280;5356;43.526;26.534;2022-12-16T10:13:59;98863.06;;;14.47;100.00
10618;BME280;5356;43.526;26.534;2022-12-16T10:16:52;98882.56;;;14.65;100.00
10618;BME280;5356;43.526;26.534;2022-12-16T10:22:55;98897.84;;;14.96;100.00
10618;BME280;5356;43.526;26.534;2022-12-16T10:25:54;98893.84;;;14.99;100.00
10618;BME280;5356;43.526;26.534;2022-12-16T10:28:48;98875.53;;;15.23;100.00
10618;BME280;5356;43.526;26.534;2022-12-16T10:31:36;98870.28;;;15.38;100.00
10618;BME280;5356;43.526;26.534;2022-12-16T10:34:26;98852.03;;;15.45;100.00
10618;BME280;5356;43.526;26.534;2022-12-16T10:37:19;98837.13;;;15.65;100.00
10618;BME280;5356;43.526;26.534;2022-12-16T10:40:05;98831.19;;;15.58;100.00
10618;BME280;5356;43.526;26.534;2022-12-16T10:43:06;98824.78;;;15.64;100.00
10618;BME280;5356;43.526;26.534;2022-12-16T10:45:55;98813.88;;;15.86;100.00
10618;BME280;5356;43.526;26.534;2022-12-16T10:48:54;98814.16;;;15.89;100.00
10618;BME280;5356;43.526;26.534;2022-12-16T10:51:39;98819.59;;;16.10;100.00
10618;BME280;5356;43.526;26.534;2022-12-16T10:54:34;98806.47;;;16.29;100.00
10618;BME280;5356;43.526;26.534;2022-12-16T10:57:47;98806.50;;;16.39;100.00
10618;BME280;5356;43.526;26.534;2022-12-16T11:00:48;98803.81;;;16.59;100.00
10618;BME280;5356;43.526;26.534;2022-12-16T11:03:35;98786.88;;;16.69;100.00
10618;BME280;5356;43.526;26.534;2022-12-16T11:06:45;98789.31;;;16.76;100.00
10618;BME280;5356;43.526;26.534;2022-12-16T11:09:31;98779.88;;;16.83;100.00
10618;BME280;5356;43.526;26.534;2022-12-16T11:15:17;98785.25;;;17.09;100.00
10618;BME280;5356;43.526;26.534;2022-12-16T11:18:07;98787.94;;;17.14;100.00
10618;BME280;5356;43.526;26.534;2022-12-16T11:21:14;98781.97;;;17.27;100.00
10618;BME280;5356;43.526;26.534;2022-12-16T11:24:19;98786.81;;;17.31;100.00
10618;BME280;5356;43.526;26.534;2022-12-16T11:27:05;98790.84;;;17.33;100.00
10618;BME280;5356;43.526;26.534;2022-12-16T11:30:35;98786.81;;;17.31;100.00
10618;BME280;5356;43.526;26.534;2022-12-16T11:32:57;98791.09;;;17.42;100.00
10618;BME280;5356;43.526;26.534;2022-12-16T11:35:48;98785.69;;;17.47;100.00
10618;BME280;5356;43.526;26.534;2022-12-16T11:38:43;98792.69;;;17.48;100.00
10618;BME280;5356;43.526;26.534;2022-12-16T11:41:32;98791.09;;;17.47;100.00
10618;BME280;5356;43.526;26.534;2022-12-16T11:44:25;98784.84;;;17.57;100.00
10618;BME280;5356;43.526;26.534;2022-12-16T11:47:38;98784.06;;;17.51;100.00
10618;BME280;5356;43.526;26.534;2022-12-16T11:50:26;98769.47;;;17.57;100.00
10618;BME280;5356;43.526;26.534;2022-12-16T11:56:31;98778.03;;;17.74;100.00
10618;BME280;5356;43.526;26.534;2022-12-16T11:59:39;98787.69;;;17.91;100.00
10618;BME280;5356;43.526;26.534;2022-12-16T12:05:14;98782.81;;;17.93;100.00
10618;BME280;5356;43.526;26.534;2022-12-16T12:08:05;98786.84;;;18.01;100.00
10618;BME280;5356;43.526;26.534;2022-12-16T12:14:09;98789.44;;;18.16;100.00
10618;BME280;5356;43.526;26.534;2022-12-16T12:17:09;98792.66;;;18.18;100.00
10618;BME280;5356;43.526;26.534;2022-12-16T12:23:06;98806.34;;;18.32;100.00
10618;BME280;5356;43.526;26.534;2022-12-16T12:26:12;98802.78;;;18.36;100.00
10618;BME280;5356;43.526;26.534;2022-12-16T12:35:12;98809.22;;;18.46;100.00
10618;BME280;5356;43.526;26.534;2022-12-16T12:44:05;98806.38;;;18.61;100.00
10618;BME280;5356;43.526;26.534;2022-12-16T12:46:58;98804.53;;;18.56;100.00
10618;BME280;5356;43.526;26.534;2022-12-16T12:58:50;98796.03;;;18.39;100.00
10618;BME280;5356;43.526;26.534;2022-12-16T13:01:36;98795.53;;;18.32;100.00
10618;BME280;5356;43.526;26.534;2022-12-16T13:04:24;98790.44;;;18.25;100.00
10618;BME280;5356;43.526;26.534;2022-12-16T13:07:11;98795.63;;;18.16;100.00
10618;BME280;5356;43.526;26.534;2022-12-16T13:16:10;98807.88;;;17.93;100.00
10618;BME280;5356;43.526;26.534;2022-12-16T13:28:25;98822.56;;;17.57;100.00
10618;BME280;5356;43.526;26.534;2022-12-16T13:31:11;98810.41;;;17.59;100.00
10618;BME280;5356;43.526;26.534;2022-12-16T13:34:01;98828.25;;;17.50;100.00
10618;BME280;5356;43.526;26.534;2022-12-16T13:36:52;98823.91;;;17.49;100.00
10618;BME280;5356;43.526;26.534;2022-12-16T13:39:37;98840.06;;;17.49;100.00
10618;BME280;5356;43.526;26.534;2022-12-16T13:45:35;98858.13;;;17.43;100.00
10618;BME280;5356;43.526;26.534;2022-12-16T13:48:27;98851.16;;;17.37;100.00
10618;BME280;5356;43.526;26.534;2022-12-16T13:54:46;98853.59;;;16.93;100.00
10618;BME280;5356;43.526;26.534;2022-12-16T13:57:37;98854.41;;;16.83;100.00
10618;BME280;5356;43.526;26.534;2022-12-16T14:00:25;98860.31;;;16.65;100.00
10618;BME280;5356;43.526;26.534;2022-12-16T14:03:14;98853.84;;;16.66;100.00
10618;BME280;5356;43.526;26.534;2022-12-16T14:06:01;98860.31;;;16.65;100.00
10618;BME280;5356;43.526;26.534;2022-12-16T14:08:47;98867.00;;;16.67;100.00
10618;BME280;5356;43.526;26.534;2022-12-16T14:14:40;98845.00;;;16.80;100.00
10618;BME280;5356;43.526;26.534;2022-12-16T14:17:34;98854.16;;;16.79;100.00
10618;BME280;5356;43.526;26.534;2022-12-16T14:20:28;98846.59;;;16.71;100.00
10618;BME280;5356;43.526;26.534;2022-12-16T14:25:58;98832.56;;;16.38;100.00
10618;BME280;5356;43.526;26.534;2022-12-16T14:28:44;98835.22;;;16.23;100.00
10618;BME280;5356;43.526;26.534;2022-12-16T14:31:38;98833.31;;;16.19;100.00
10618;BME280;5356;43.526;26.534;2022-12-16T14:40:04;98845.13;;;16.02;100.00
10618;BME280;5356;43.526;26.534;2022-12-16T14:42:51;98843.22;;;15.98;100.00
10618;BME280;5356;43.526;26.534;2022-12-16T14:45:47;98846.38;;;15.84;100.00
10618;BME280;5356;43.526;26.534;2022-12-16T14:48:37;98851.75;;;15.84;100.00
10618;BME280;5356;43.526;26.534;2022-12-16T14:54:39;98860.28;;;15.71;100.00
10618;BME280;5356;43.526;26.534;2022-12-16T14:58:00;98858.59;;;15.60;100.00
10618;BME280;5356;43.526;26.534;2022-12-16T15:00:46;98861.22;;;15.49;100.00
10618;BME280;5356;43.526;26.534;2022-12-16T15:03:35;98850.97;;;15.41;100.00
10618;BME280;5356;43.526;26.534;2022-12-16T15:06:35;98859.25;;;15.35;100.00
10618;BME280;5356;43.526;26.534;2022-12-16T15:09:29;98866.47;;;15.29;100.00
10618;BME280;5356;43.526;26.534;2022-12-16T15:12:18;98864.56;;;15.30;100.00
10618;BME280;5356;43.526;26.534;2022-12-16T15:15:09;98862.13;;;15.23;100.00
10618;BME280;5356;43.526;26.534;2022-12-16T15:17:57;98856.69;;;15.13;100.00
10618;BME280;5356;43.526;26.534;2022-12-16T15:20:53;98856.16;;;15.16;100.00
10618;BME280;5356;43.526;26.534;2022-12-16T15:23:43;98854.00;;;15.13;100.00
10618;BME280;5356;43.526;26.534;2022-12-16T15:26:30;98860.06;;;15.03;100.00
10618;BME280;5356;43.526;26.534;2022-12-16T15:35:09;98862.56;;;14.50;100.00
10618;BME280;5356;43.526;26.534;2022-12-16T15:37:54;98872.22;;;14.29;100.00
10618;BME280;5356;43.526;26.534;2022-12-16T15:40:39;98863.59;;;14.22;100.00
10618;BME280;5356;43.526;26.534;2022-12-16T15:43:31;98857.94;;;14.19;100.00
10618;BME280;5356;43.526;26.534;2022-12-16T15:46:18;98853.19;;;14.26;100.00
10618;BME280;5356;43.526;26.534;2022-12-16T15:49:03;98859.09;;;14.28;100.00
10618;BME280;5356;43.526;26.534;2022-12-16T15:51:49;98841.50;;;14.37;100.00
10618;BME280;5356;43.526;26.534;2022-12-16T15:54:49;98858.59;;;14.31;100.00
10618;BME280;5356;43.526;26.534;2022-12-16T15:57:35;98861.28;;;14.31;100.00
10618;BME280;5356;43.526;26.534;2022-12-16T16:03:28;98871.78;;;14.37;100.00
10618;BME280;5356;43.526;26.534;2022-12-16T16:06:20;98869.44;;;14.41;100.00
10618;BME280;5356;43.526;26.534;2022-12-16T16:09:19;98865.13;;;14.40;100.00